Hanna, Oklahoma
Current Conditions -  °F | °C
As of 6:53 PM on Saturday 25 Oct 2014 (Local Time) from KMLC Reporting Station
Clear Clear  
Wind Chill: 78°   Ceiling: Unl
Heat Index: 80°   Visibility: 10mi
Dew Point: 64°   Wind: 5mph
Humidity: 62%   Direction: 170°S
Pressure: 30.03"   Gusts: NA
Location:  35.21°N, 95.89°W
Report Text: KMLC 252353Z AUTO 17004KT 10SM CLR 26/18 A3003 RMK AO2 SLP161 T02560178 10311 20256 56004
Loading
Personal Weather Stations






























Interactive Weather Map
Tropical Storm Tracking
New forecast layout! Learn more

10-Day Weather Forecast

Advertisements
Track Severe Weather on mobile